CLH1281 EGCC-EDDF
Flight info
| Callsign | CLH1281 |
|---|---|
| Flight time | N/A |
| Altitude | 39000 |
| Route | DESIG L603 DOLAS DCT NAVPI DCT NOLRU DCT DIXAT DIXAT1A |
| Aircraft | A319/M-SDE3FGHIRWY/LB1 |
Departure
| Time | 2026-05-05 19:18 |
|---|---|
| Airport | Manchester Airport (EGCC) |
Arrival
| Time | N/A |
|---|---|
| Airport | Frankfurt Main Airport (EDDF) |
| Time | Latitude | Longitude | Altitude | Speed | Heading |
|---|---|---|---|---|---|
| 2026-05-05 18:57 | 53.36822 | -2.28633 | 255 ft | 0 kts | 315° |
| 2026-05-05 18:57 | 53.36821 | -2.28630 | 255 ft | 0 kts | 315° |
| 2026-05-05 19:07 | 53.36805 | -2.28603 | 255 ft | 4 kts | 315° |
| 2026-05-05 19:08 | 53.36791 | -2.28581 | 255 ft | 4 kts | 280° |
| 2026-05-05 19:08 | 53.36799 | -2.28553 | 255 ft | 3 kts | 224° |
| 2026-05-05 19:08 | 53.36811 | -2.28533 | 255 ft | 0 kts | 224° |
| 2026-05-05 19:12 | 53.36809 | -2.28537 | 255 ft | 0 kts | 224° |
| 2026-05-05 19:12 | 53.36802 | -2.28549 | 258 ft | 6 kts | 224° |
| 2026-05-05 19:12 | 53.36745 | -2.28642 | 252 ft | 13 kts | 224° |
| 2026-05-05 19:12 | 53.36674 | -2.28752 | 255 ft | 14 kts | 207° |
| 2026-05-05 19:13 | 53.36577 | -2.28760 | 255 ft | 14 kts | 131° |
| 2026-05-05 19:13 | 53.36507 | -2.28636 | 255 ft | 15 kts | 136° |
| 2026-05-05 19:13 | 53.36427 | -2.28504 | 255 ft | 17 kts | 140° |
| 2026-05-05 19:13 | 53.36320 | -2.28427 | 255 ft | 18 kts | 137° |
| 2026-05-05 19:14 | 53.36231 | -2.28277 | 255 ft | 19 kts | 134° |
| 2026-05-05 19:14 | 53.36135 | -2.28121 | 255 ft | 20 kts | 136° |
| 2026-05-05 19:14 | 53.36030 | -2.27956 | 260 ft | 21 kts | 139° |
| 2026-05-05 19:14 | 53.35907 | -2.27845 | 255 ft | 21 kts | 186° |
| 2026-05-05 19:15 | 53.35748 | -2.27877 | 247 ft | 26 kts | 186° |
| 2026-05-05 19:15 | 53.35559 | -2.27906 | 237 ft | 28 kts | 186° |
| 2026-05-05 19:15 | 53.35416 | -2.27986 | 237 ft | 22 kts | 223° |
| 2026-05-05 19:15 | 53.35310 | -2.28158 | 234 ft | 21 kts | 225° |
| 2026-05-05 19:16 | 53.35193 | -2.28367 | 230 ft | 31 kts | 230° |
| 2026-05-05 19:16 | 53.35051 | -2.28666 | 229 ft | 32 kts | 232° |
| 2026-05-05 19:16 | 53.34960 | -2.28730 | 230 ft | 0 kts | 147° |
| 2026-05-05 19:16 | 53.34957 | -2.28726 | 230 ft | 1 kts | 147° |
| 2026-05-05 19:17 | 53.34954 | -2.28722 | 229 ft | 0 kts | 147° |
| 2026-05-05 19:17 | 53.34953 | -2.28722 | 229 ft | 1 kts | 147° |
| 2026-05-05 19:17 | 53.34898 | -2.28652 | 228 ft | 19 kts | 142° |
| 2026-05-05 19:17 | 53.34901 | -2.28474 | 232 ft | 18 kts | 51° |
| 2026-05-05 19:18 | 53.35048 | -2.28166 | 233 ft | 65 kts | 51° |
| 2026-05-05 19:18 | 53.35506 | -2.27221 | 252 ft | 138 kts | 51° |
| 2026-05-05 19:18 | 53.36133 | -2.25911 | 723 ft | 149 kts | 51° |
| 2026-05-05 19:18 | 53.36787 | -2.24528 | 1423 ft | 155 kts | 51° |
| 2026-05-05 19:19 | 53.37467 | -2.23089 | 2156 ft | 159 kts | 51° |
| 2026-05-05 19:19 | 53.38145 | -2.21647 | 2869 ft | 152 kts | 51° |
| 2026-05-05 19:19 | 53.38805 | -2.20229 | 3496 ft | 158 kts | 51° |
| 2026-05-05 19:19 | 53.39289 | -2.19207 | 3779 ft | 173 kts | 51° |
| 2026-05-05 19:20 | 53.40369 | -2.16940 | 4304 ft | 203 kts | 50° |
| 2026-05-05 19:20 | 53.40986 | -2.15642 | 4565 ft | 219 kts | 50° |
| 2026-05-05 19:20 | 53.41971 | -2.13567 | 5030 ft | 239 kts | 50° |
| 2026-05-05 19:20 | 53.43038 | -2.11311 | 5631 ft | 257 kts | 50° |
| 2026-05-05 19:21 | 53.44173 | -2.08900 | 6320 ft | 273 kts | 50° |
| 2026-05-05 19:21 | 53.45361 | -2.06366 | 7264 ft | 279 kts | 50° |
| 2026-05-05 19:21 | 53.46584 | -2.03753 | 8256 ft | 284 kts | 49° |
| 2026-05-05 19:21 | 53.47820 | -2.01120 | 9239 ft | 289 kts | 49° |
| 2026-05-05 19:22 | 53.49058 | -1.98487 | 10178 ft | 294 kts | 49° |
| 2026-05-05 19:22 | 53.50381 | -1.95703 | 10599 ft | 318 kts | 49° |
| 2026-05-05 19:22 | 53.51988 | -1.92994 | 10920 ft | 338 kts | 30° |
| 2026-05-05 19:22 | 53.54222 | -1.91707 | 11424 ft | 346 kts | 3° |
| 2026-05-05 19:23 | 53.56645 | -1.91518 | 12179 ft | 352 kts | 4° |
| 2026-05-05 19:23 | 53.58987 | -1.90171 | 12930 ft | 365 kts | 30° |
| 2026-05-05 19:23 | 53.60809 | -1.87146 | 13694 ft | 376 kts | 56° |
| 2026-05-05 19:23 | 53.61719 | -1.83001 | 14390 ft | 383 kts | 82° |
| 2026-05-05 19:24 | 53.61516 | -1.78540 | 15089 ft | 387 kts | 108° |
| 2026-05-05 19:24 | 53.60259 | -1.74553 | 15811 ft | 388 kts | 129° |
| 2026-05-05 19:24 | 53.58551 | -1.71023 | 16539 ft | 391 kts | 129° |
| 2026-05-05 19:24 | 53.56965 | -1.67280 | 17275 ft | 395 kts | 125° |
| 2026-05-05 19:25 | 53.55481 | -1.63372 | 17988 ft | 399 kts | 123° |
| 2026-05-05 19:25 | 53.54030 | -1.59382 | 18651 ft | 402 kts | 123° |
| 2026-05-05 19:25 | 53.52559 | -1.55348 | 19278 ft | 405 kts | 123° |
| 2026-05-05 19:25 | 53.51057 | -1.51328 | 19913 ft | 408 kts | 124° |
| 2026-05-05 19:26 | 53.49507 | -1.47300 | 20535 ft | 411 kts | 125° |
| 2026-05-05 19:26 | 53.47926 | -1.43280 | 21142 ft | 414 kts | 125° |
| 2026-05-05 19:26 | 53.46319 | -1.39249 | 21743 ft | 417 kts | 126° |
| 2026-05-05 19:26 | 53.44697 | -1.35207 | 22311 ft | 420 kts | 126° |
| 2026-05-05 19:27 | 53.43084 | -1.31176 | 22875 ft | 423 kts | 124° |
| 2026-05-05 19:27 | 53.41674 | -1.26737 | 23430 ft | 428 kts | 115° |
| 2026-05-05 19:27 | 53.40699 | -1.21990 | 23916 ft | 433 kts | 108° |
| 2026-05-05 19:27 | 53.39844 | -1.17208 | 24370 ft | 435 kts | 108° |
| 2026-05-05 19:28 | 53.38958 | -1.12285 | 24842 ft | 437 kts | 108° |
| 2026-05-05 19:28 | 53.38073 | -1.07408 | 25305 ft | 439 kts | 108° |
| 2026-05-05 19:28 | 53.37186 | -1.02574 | 25755 ft | 441 kts | 108° |
| 2026-05-05 19:28 | 53.36265 | -0.97592 | 26184 ft | 444 kts | 108° |
| 2026-05-05 19:29 | 53.35348 | -0.92643 | 26620 ft | 446 kts | 108° |
| 2026-05-05 19:29 | 53.34438 | -0.87737 | 27060 ft | 448 kts | 108° |
| 2026-05-05 19:29 | 53.33501 | -0.82693 | 27508 ft | 450 kts | 108° |
| 2026-05-05 19:29 | 53.32566 | -0.77671 | 27929 ft | 452 kts | 108° |
| 2026-05-05 19:30 | 53.31640 | -0.72722 | 28334 ft | 454 kts | 108° |
| 2026-05-05 19:30 | 53.30694 | -0.67664 | 28732 ft | 456 kts | 108° |
| 2026-05-05 19:30 | 53.29747 | -0.62598 | 29133 ft | 458 kts | 108° |
| 2026-05-05 19:30 | 53.28793 | -0.57503 | 29516 ft | 460 kts | 108° |
| 2026-05-05 19:31 | 53.27831 | -0.52396 | 29883 ft | 462 kts | 108° |
| 2026-05-05 19:31 | 53.26846 | -0.47206 | 30236 ft | 464 kts | 108° |
| 2026-05-05 19:31 | 53.25871 | -0.42077 | 30680 ft | 462 kts | 108° |
| 2026-05-05 19:31 | 53.24900 | -0.36977 | 31124 ft | 460 kts | 108° |
| 2026-05-05 19:32 | 53.23932 | -0.31899 | 31620 ft | 458 kts | 108° |
| 2026-05-05 19:32 | 53.22969 | -0.26847 | 32129 ft | 455 kts | 108° |
| 2026-05-05 19:32 | 53.22009 | -0.21832 | 32602 ft | 454 kts | 108° |
| 2026-05-05 19:32 | 53.21047 | -0.16823 | 33090 ft | 452 kts | 108° |
| 2026-05-05 19:33 | 53.20087 | -0.11844 | 33561 ft | 450 kts | 108° |
| 2026-05-05 19:33 | 53.19138 | -0.06949 | 34014 ft | 449 kts | 107° |
| 2026-05-05 19:33 | 53.18179 | -0.02012 | 34404 ft | 448 kts | 107° |
| 2026-05-05 19:33 | 53.17219 | 0.02931 | 34698 ft | 449 kts | 108° |
| 2026-05-05 19:34 | 53.16255 | 0.07892 | 34998 ft | 450 kts | 108° |
| 2026-05-05 19:34 | 53.15289 | 0.12860 | 35295 ft | 451 kts | 108° |
| 2026-05-05 19:34 | 53.14320 | 0.17841 | 35577 ft | 453 kts | 108° |
| 2026-05-05 19:35 | 53.12369 | 0.27808 | 36156 ft | 454 kts | 108° |
| 2026-05-05 19:35 | 53.11379 | 0.32816 | 36414 ft | 455 kts | 109° |
| 2026-05-05 19:35 | 53.10387 | 0.37824 | 36692 ft | 455 kts | 109° |
| 2026-05-05 19:35 | 53.09395 | 0.42825 | 36948 ft | 456 kts | 109° |
| 2026-05-05 19:36 | 53.08397 | 0.47843 | 37024 ft | 456 kts | 109° |
| 2026-05-05 19:36 | 53.06400 | 0.57856 | 37027 ft | 457 kts | 109° |
| 2026-05-05 19:37 | 53.04394 | 0.67870 | 37029 ft | 457 kts | 109° |
| 2026-05-05 19:37 | 53.02378 | 0.77874 | 37026 ft | 456 kts | 109° |
| 2026-05-05 19:38 | 53.00353 | 0.87875 | 37022 ft | 456 kts | 109° |
| 2026-05-05 19:38 | 52.98323 | 0.97853 | 37024 ft | 456 kts | 109° |
| 2026-05-05 19:39 | 52.96212 | 1.07782 | 37025 ft | 456 kts | 111° |
| 2026-05-05 19:39 | 52.93956 | 1.17626 | 37019 ft | 457 kts | 112° |
| 2026-05-05 19:40 | 52.91674 | 1.27461 | 37024 ft | 457 kts | 112° |
| 2026-05-05 19:40 | 52.89432 | 1.37232 | 37019 ft | 457 kts | 111° |
| 2026-05-05 19:41 | 52.87188 | 1.47089 | 37021 ft | 457 kts | 111° |
| 2026-05-05 19:41 | 52.84935 | 1.56925 | 37016 ft | 457 kts | 112° |
| 2026-05-05 19:42 | 52.82657 | 1.66750 | 37011 ft | 458 kts | 112° |
| 2026-05-05 19:42 | 52.80360 | 1.76625 | 37012 ft | 458 kts | 112° |
| 2026-05-05 19:43 | 52.78078 | 1.86398 | 37012 ft | 458 kts | 112° |
| 2026-05-05 19:43 | 52.75778 | 1.96202 | 37020 ft | 458 kts | 112° |
| 2026-05-05 19:44 | 52.73469 | 2.06024 | 37007 ft | 458 kts | 112° |
| 2026-05-05 19:44 | 52.71160 | 2.15814 | 37019 ft | 457 kts | 112° |
| 2026-05-05 19:45 | 52.68836 | 2.25578 | 37016 ft | 457 kts | 113° |
| 2026-05-05 19:45 | 52.68078 | 2.28748 | 36154 ft | 457 kts | 113° |